Parkman, WY (82838)

10:16 AM MDT on October 01, 2014 (GMT -0600)
KWYSHERI2 | Change Station
CLOSE
Current Station
Personal Weather Station
Location: Sheridan, WY
Elevation: 3828 ft
Nearby Weather Stations

Elev 3828 ft 44.81 °N, 106.98 °W | Updated 3 minutes ago

Overcast
Overcast
46.8 °F
Feels Like 47 °F
N
2.0
Wind Variable Wind from WNW
Gusts 5.0 mph

Today
High -- | Low -- °F
--% Chance of Precip.
Yesterday
High -- | Low -- °F
Precip. -- in
7:07 AM 6:49 PM
Waxing Crescent, 49% visible
Pressure 29.96 in
Visibility 10.0 miles
Clouds Scattered Clouds 2700 ft
Overcast 3100 ft
Windchill 47 °F
Dew Point 42 °F
Humidity 83%
Rainfall 0.02 in
Snow Depth 1 in , 0 in , 1 in
UV 1 out of 12
Pollen 3.40 out of 12
Air Quality Not available.
Flu Activity Not available.
METAR KSHR 011553Z AUTO 33008KT 10SM -RA SCT027 OVC031 08/06 A2997 RMK AO2 SLP145 P0002 T00830056

More Conditions Fewer Conditions

Pressure 29.96 in
Visibility 10.0 miles
Clouds Scattered Clouds 2700 ft
Overcast 3100 ft
Windchill 47 °F
Dew Point 42 °F
Humidity 83%
Rainfall 0.02 in
Snow Depth 1 in , 0 in , 1 in
UV 1 out of 12
Pollen 3.40 out of 12
Air Quality Not available.
Flu Activity Not available.
METAR KSHR 011553Z AUTO 33008KT 10SM -RA SCT027 OVC031 08/06 A2997 RMK AO2 SLP145 P0002 T00830056

More Conditions Fewer Conditions

10-Day Weather Forecast

Almanac

Astronomy

Oct. 01, 2014 Rise Set
Actual Time 7:07 AM MDT 6:49 PM MDT
Civil Twilight 6:38 AM MDT 7:18 PM MDT
Nautical Twilight 6:04 AM MDT 7:52 PM MDT
Astronomical Twilight 5:29 AM MDT 8:27 PM MDT
Moon 2:21 PM MDT No Moon Set
Length of Visible Light 12h 40m
Length of Day
11h 42m
Tomorrow will be 3m 6s shorter.
Waxing Crescent, 49% of the Moon is Illuminated
Today
Waxing Crescent
Oct 1
First Quarter
Oct 8
Full
Oct 15
Last Quarter
Oct 23
New

Today's Extremes

State Highs State Lows

Community

WunderPhotos

Upload Photos

1,757,976 photos uploaded!

WunderBlogs® & News

Nearby

Snow Depth

Station Depth Elevation
Crow Creek 1 in 8330 ft
East Rim Divide 0 in 7930 ft
Brooklyn Lake 1 in 10220 ft
Casper Mountain 0 in 7850 ft
Kelley R.S. 1 in 8180 ft

Earthquake Activity

City Distance Mag. Time & Date
No recent earthquake activity has been reported nearby.
Minimum magnitude displayed is 2.5.

Coastal Water Temperatures

Place Temperature
No Stations Reporting

Nearby Weather Stations